Time;durP1;ratioP1;P1;durP2;ratioP2;P2;SDS_P1;SDS_P2;PMS_P1;PMS_P2;Temp;Humidity;BMP_temperature;BMP_pressure;BME280_temperature;BME280_humidity;BME280_pressure;Samples;Min_cycle;Max_cycle;Signal;HPM_P1;HPM_P2
2021/12/31 00:02:10;;;;;;;6.37;6.07;;;;;;;12.73;100.00;101492.50;4360271;32;20082;-75
2021/12/31 00:04:36;;;;;;;4.80;4.60;;;;;;;12.69;100.00;101491.78;4378861;32;20151;-76
2021/12/31 00:07:01;;;;;;;4.80;4.60;;;;;;;12.48;99.73;101461.22;4374625;32;21011;-76
2021/12/31 00:09:27;;;;;;;4.85;4.62;;;;;;;12.75;99.55;101495.91;4375605;32;20081;-77
2021/12/31 00:11:52;;;;;;;4.75;4.55;;;;;;;12.74;99.33;101495.03;4375092;32;20108;-76
2021/12/31 00:14:19;;;;;;;6.22;5.93;;;;;;;12.78;99.25;101499.22;4356089;32;20058;-75
2021/12/31 00:16:45;;;;;;;4.65;4.45;;;;;;;12.77;97.70;101489.62;4386776;32;20073;-77
2021/12/31 00:19:11;;;;;;;5.62;5.43;;;;;;;11.35;97.53;101250.78;4362493;32;20077;-77
2021/12/31 00:21:37;;;;;;;4.60;4.40;;;;;;;12.75;97.99;101483.56;4377366;32;20078;-76
2021/12/31 00:24:03;;;;;;;4.45;4.25;;;;;;;12.05;97.21;101382.53;4373817;32;20080;-77
2021/12/31 00:26:28;;;;;;;4.70;4.50;;;;;;;12.57;96.83;101455.50;4375375;32;20090;-76
2021/12/31 00:28:54;;;;;;;4.85;4.65;;;;;;;12.62;96.70;101466.66;4363911;32;20081;-76
2021/12/31 00:31:19;;;;;;;6.03;5.72;;;;;;;12.74;97.15;101486.28;4361121;32;20690;-76
2021/12/31 00:33:44;;;;;;;4.80;4.60;;;;;;;12.75;96.21;101486.22;4390801;32;20105;-76
2021/12/31 00:36:10;;;;;;;5.85;5.60;;;;;;;12.78;96.39;101474.66;4384162;32;20069;-76
2021/12/31 00:38:35;;;;;;;4.47;4.28;;;;;;;12.77;96.12;101480.87;4377784;32;20086;-77
2021/12/31 00:41:00;;;;;;;4.70;4.50;;;;;;;12.77;96.32;101476.44;4374151;32;20090;-74
2021/12/31 00:43:26;;;;;;;4.80;4.60;;;;;;;12.73;96.11;101474.06;4377036;32;20490;-74
2021/12/31 00:45:51;;;;;;;4.65;4.45;;;;;;;12.61;95.84;101454.44;4378089;32;20085;-77
2021/12/31 00:48:17;;;;;;;5.85;5.60;;;;;;;12.59;96.09;101453.66;4373757;32;20124;-77
2021/12/31 00:50:42;;;;;;;4.50;4.30;;;;;;;12.69;96.31;101470.72;4366277;32;20076;-75
2021/12/31 00:53:07;;;;;;;5.45;5.20;;;;;;;12.32;95.66;101404.03;4364671;32;20139;-75
2021/12/31 00:55:33;;;;;;;4.53;4.32;;;;;;;12.49;95.26;101434.81;4377680;32;20592;-76
2021/12/31 00:57:58;;;;;;;4.45;4.25;;;;;;;12.72;95.52;101474.97;4379795;32;20076;-76
2021/12/31 01:00:24;;;;;;;5.12;4.93;;;;;;;12.60;95.10;101468.50;4377940;32;20997;-76
2021/12/31 01:02:49;;;;;;;4.50;4.30;;;;;;;12.71;95.53;101479.38;4374517;32;20545;-76
2021/12/31 01:05:15;;;;;;;5.45;5.25;;;;;;;12.70;95.09;101477.66;4362012;32;21025;-76
2021/12/31 01:07:40;;;;;;;4.80;4.60;;;;;;;12.70;94.79;101477.66;4376208;32;20197;-75
2021/12/31 01:10:06;;;;;;;4.60;4.40;;;;;;;12.61;94.30;101454.44;4381135;32;20073;-74
2021/12/31 01:12:32;;;;;;;4.70;4.50;;;;;;;12.74;94.80;101486.28;4378557;32;20143;-75
2021/12/31 01:15:02;;;;;;;5.15;4.95;;;;;;;12.55;94.00;101438.94;4378436;32;20062;-77
2021/12/31 01:20:13;;;;;;;5.45;5.25;;;;;;;12.77;93.86;101494.87;4376829;32;20128;-75
2021/12/31 01:22:39;;;;;;;4.60;4.40;;;;;;;12.78;93.12;101487.84;4360398;32;20353;-75
2021/12/31 01:25:05;;;;;;;16.17;15.38;;;;;;;12.80;93.00;101482.50;4282410;32;20673;-75
2021/12/31 01:27:30;;;;;;;4.80;4.60;;;;;;;12.78;93.18;101483.41;4356764;32;20076;-75
2021/12/31 01:29:56;;;;;;;4.40;4.20;;;;;;;12.58;92.87;101471.22;4373735;32;20066;-76
2021/12/31 01:32:21;;;;;;;5.87;5.60;;;;;;;12.83;92.88;101488.47;4357663;32;20074;-76
2021/12/31 01:34:46;;;;;;;4.60;4.40;;;;;;;12.07;92.21;101378.03;4372060;32;20088;-77
2021/12/31 01:37:12;;;;;;;5.40;5.20;;;;;;;10.62;91.87;101176.19;4360286;32;20128;-75
2021/12/31 01:39:37;;;;;;;4.68;4.47;;;;;;;12.86;92.17;101484.84;4359684;32;20066;-75
2021/12/31 01:42:06;;;;;;;4.70;4.50;;;;;;;12.65;92.30;101442.81;4383973;32;20062;-76
2021/12/31 01:44:41;;;;;;;4.50;4.30;;;;;;;11.51;92.04;101257.97;4380052;32;20076;-76
2021/12/31 01:47:12;;;;;;;4.55;4.35;;;;;;;11.43;91.63;101265.34;4377169;32;20069;-75
2021/12/31 01:49:40;;;;;;;4.60;4.40;;;;;;;12.78;92.36;101478.16;4376278;32;20111;-76
2021/12/31 01:52:07;;;;;;;4.70;4.50;;;;;;;12.78;92.62;101475.50;4372710;32;20171;-76
2021/12/31 01:54:33;;;;;;;4.70;4.50;;;;;;;12.82;91.47;101478.84;4363709;32;20093;-74
2021/12/31 01:57:00;;;;;;;4.80;4.60;;;;;;;12.68;91.10;101453.19;4378959;32;20080;-76
2021/12/31 01:59:26;;;;;;;5.10;4.90;;;;;;;12.80;91.18;101475.44;4360157;32;20260;-77
2021/12/31 02:01:52;;;;;;;4.40;4.20;;;;;;;12.32;91.31;101432.97;4376018;32;20351;-76
2021/12/31 02:04:17;;;;;;;5.90;5.60;;;;;;;12.83;90.77;101480.56;4361762;32;20124;-77
2021/12/31 02:06:43;;;;;;;5.25;4.95;;;;;;;12.81;91.04;101478.91;4377661;32;20080;-75
2021/12/31 02:09:08;;;;;;;4.72;4.53;;;;;;;12.82;90.48;101478.84;4362084;32;20531;-76
2021/12/31 02:11:33;;;;;;;4.40;4.20;;;;;;;12.83;90.28;101480.56;4367919;32;20832;-77
2021/12/31 02:14:00;;;;;;;4.50;4.30;;;;;;;12.84;90.14;101481.41;4377325;32;20084;-76
2021/12/31 02:16:25;;;;;;;5.03;4.82;;;;;;;12.75;89.92;101453.75;4372548;32;20129;-77
2021/12/31 02:18:51;;;;;;;4.60;4.40;;;;;;;12.73;89.38;101460.87;4375959;32;20088;-77
2021/12/31 02:21:17;;;;;;;5.57;5.37;;;;;;;12.85;89.53;101483.97;4377461;32;21111;-76
2021/12/31 02:23:45;;;;;;;4.68;4.47;;;;;;;12.81;89.37;101455.22;4358936;32;20092;-75
2021/12/31 02:26:10;;;;;;;5.22;5.03;;;;;;;12.92;88.96;101474.00;4363799;32;20061;-75
2021/12/31 02:28:36;;;;;;;4.43;4.22;;;;;;;12.90;88.46;101481.13;4369727;32;20077;-76
2021/12/31 02:31:05;;;;;;;4.80;4.60;;;;;;;12.87;88.55;101468.97;4379071;32;20105;-73
2021/12/31 02:33:30;;;;;;;4.60;4.40;;;;;;;12.92;88.33;101476.63;4373054;32;20168;-76
2021/12/31 02:35:56;;;;;;;4.50;4.30;;;;;;;12.75;88.57;101451.97;4372540;32;20077;-75
2021/12/31 02:38:22;;;;;;;5.87;5.60;;;;;;;12.80;88.90;101461.44;4362009;32;20062;-75
2021/12/31 02:40:47;;;;;;;4.50;4.30;;;;;;;12.94;88.20;101480.03;4373296;32;20093;-76
2021/12/31 02:43:12;;;;;;;5.78;5.55;;;;;;;12.92;88.62;101482.72;4361126;32;20086;-75
2021/12/31 02:45:40;;;;;;;4.53;4.32;;;;;;;12.90;88.38;101478.47;4374030;32;20069;-75
2021/12/31 02:48:06;;;;;;;4.47;4.28;;;;;;;12.06;88.48;101359.69;4372536;32;20185;-75
2021/12/31 02:50:34;;;;;;;4.70;4.50;;;;;;;12.89;88.18;101475.00;4378749;32;20073;-77
2021/12/31 02:53:04;;;;;;;4.50;4.30;;;;;;;12.92;87.42;101468.72;4365356;32;20183;-76
2021/12/31 02:55:30;;;;;;;4.65;4.45;;;;;;;12.68;87.79;101434.75;4369568;32;20061;-76
2021/12/31 02:57:56;;;;;;;4.75;4.55;;;;;;;12.89;87.69;101463.59;4368185;32;20079;-77
2021/12/31 03:00:21;;;;;;;5.72;5.50;;;;;;;12.87;87.32;101470.72;4378458;32;20062;-76
2021/12/31 03:02:46;;;;;;;4.50;4.30;;;;;;;12.89;87.86;101466.22;4369749;32;20069;-76
2021/12/31 03:05:12;;;;;;;5.00;4.80;;;;;;;12.88;88.00;101465.38;4363325;32;20065;-76
2021/12/31 03:07:37;;;;;;;9.38;4.72;;;;;;;11.93;87.73;101376.06;4378648;32;20077;-75
2021/12/31 03:10:04;;;;;;;4.53;4.32;;;;;;;11.88;87.77;101364.00;4379365;32;20144;-76
2021/12/31 03:12:29;;;;;;;4.50;4.30;;;;;;;12.76;87.36;101450.19;4362549;32;20069;-76
2021/12/31 03:14:54;;;;;;;4.50;4.30;;;;;;;12.88;87.19;101467.16;4375909;32;20100;-75
2021/12/31 03:17:20;;;;;;;4.80;4.60;;;;;;;12.62;86.75;101403.47;4361797;32;20078;-75
2021/12/31 03:19:45;;;;;;;4.60;4.40;;;;;;;12.85;86.83;101447.09;4382776;32;20073;-77
2021/12/31 03:22:11;;;;;;;5.45;5.25;;;;;;;12.87;86.65;101447.88;4372258;32;20918;-75
2021/12/31 03:24:36;;;;;;;4.60;4.40;;;;;;;12.97;86.45;101469.34;4375397;32;20096;-77
2021/12/31 03:27:01;;;;;;;4.65;4.45;;;;;;;12.82;86.29;101447.25;4369452;32;20085;-75
2021/12/31 03:29:27;;;;;;;5.00;4.80;;;;;;;12.95;86.58;101477.31;4360265;32;20168;-77
2021/12/31 03:31:52;;;;;;;4.70;4.50;;;;;;;12.46;86.21;101436.72;4369935;32;20077;-74
2021/12/31 03:34:18;;;;;;;5.60;5.37;;;;;;;12.92;86.64;101477.47;4385659;32;20061;-76
2021/12/31 03:36:43;;;;;;;4.62;4.43;;;;;;;12.90;86.96;101467.94;4380145;32;20084;-76
2021/12/31 03:39:09;;;;;;;5.45;5.25;;;;;;;12.92;86.78;101466.09;4352359;32;20186;-76
2021/12/31 03:41:34;;;;;;;4.37;4.18;;;;;;;12.92;86.73;101461.66;4380272;32;20065;-77
2021/12/31 03:44:00;;;;;;;4.50;4.30;;;;;;;12.90;86.51;101452.12;4379366;32;20080;-76
2021/12/31 03:46:25;;;;;;;4.40;4.20;;;;;;;12.00;86.76;101313.47;4368871;32;20150;-75
2021/12/31 03:48:50;;;;;;;4.50;4.30;;;;;;;12.89;86.82;101445.16;4364944;32;20070;-75
2021/12/31 03:51:16;;;;;;;4.70;4.50;;;;;;;12.83;86.08;101424.38;4365057;32;20309;-76
2021/12/31 03:53:41;;;;;;;4.60;4.40;;;;;;;12.89;86.43;101434.59;4377092;32;20061;-76
2021/12/31 03:56:06;;;;;;;4.80;4.60;;;;;;;12.88;86.38;101439.03;4370975;32;20070;-73
2021/12/31 03:58:32;;;;;;;4.60;4.40;;;;;;;12.62;86.54;101389.44;4377517;32;20713;-76
2021/12/31 04:00:57;;;;;;;4.65;4.45;;;;;;;11.59;86.06;101221.62;4376844;32;20655;-76
2021/12/31 04:03:22;;;;;;;4.30;4.10;;;;;;;12.84;86.65;101439.28;4371060;32;20069;-76
2021/12/31 04:05:50;;;;;;;4.60;4.40;;;;;;;12.74;86.90;101421.28;4373665;32;20057;-76
2021/12/31 04:08:15;;;;;;;5.53;5.32;;;;;;;12.77;86.80;101438.72;4367881;32;20092;-75
2021/12/31 04:10:40;;;;;;;4.50;4.30;;;;;;;12.58;87.34;101410.66;4387001;32;20073;-77
2021/12/31 04:13:06;;;;;;;4.93;4.72;;;;;;;12.47;87.56;101391.03;4376773;32;20085;-75
2021/12/31 04:15:31;;;;;;;4.60;4.40;;;;;;;12.56;88.09;101417.78;4377316;32;20070;-75
2021/12/31 04:17:56;;;;;;;4.57;4.37;;;;;;;12.49;87.97;101403.22;4378584;32;21178;-76
2021/12/31 04:20:33;;;;;;;6.10;5.80;;;;;;;12.49;88.59;101423.44;4366982;32;20107;-76
2021/12/31 04:23:01;;;;;;;4.40;4.20;;;;;;;12.53;88.88;101433.75;4361036;32;20080;-76
2021/12/31 04:25:27;;;;;;;4.90;4.70;;;;;;;12.38;88.91;101421.31;4363478;32;20300;-77
2021/12/31 04:27:52;;;;;;;4.72;4.53;;;;;;;12.48;89.16;101425.19;4372257;32;20097;-75
2021/12/31 04:30:18;;;;;;;6.32;6.03;;;;;;;12.14;89.53;101375.97;4364375;32;20084;-75
2021/12/31 04:32:43;;;;;;;4.60;4.40;;;;;;;11.81;89.19;101315.25;4376955;32;20889;-76
2021/12/31 04:35:11;;;;;;;4.87;4.68;;;;;;;12.44;89.58;101428.06;4359819;32;20084;-76
2021/12/31 04:37:36;;;;;;;4.68;4.47;;;;;;;12.43;89.52;101426.34;4378574;32;20211;-76
2021/12/31 04:40:02;;;;;;;4.60;4.40;;;;;;;12.36;89.79;101424.00;4381503;32;20095;-77
2021/12/31 04:42:27;;;;;;;4.78;4.57;;;;;;;12.18;89.99;101403.84;4360244;32;20859;-76
2021/12/31 04:44:52;;;;;;;4.43;4.22;;;;;;;12.30;90.12;101429.56;4391780;32;20090;-76
2021/12/31 04:47:18;;;;;;;6.03;5.72;;;;;;;12.27;90.36;101431.50;4371730;32;20128;-75
2021/12/31 04:49:43;;;;;;;4.62;4.43;;;;;;;12.03;90.18;101400.16;4376754;32;20078;-75
2021/12/31 04:52:08;;;;;;;5.35;5.15;;;;;;;12.21;90.47;101429.13;4360660;32;20927;-74
2021/12/31 04:54:34;;;;;;;4.80;4.60;;;;;;;11.98;90.90;101392.47;4368717;32;20092;-76
2021/12/31 04:56:59;;;;;;;4.50;4.30;;;;;;;12.16;90.96;101417.06;4380464;32;20079;-75
2021/12/31 04:59:25;;;;;;;5.20;5.00;;;;;;;11.96;91.62;101394.31;4377466;32;20078;-76
2021/12/31 05:01:50;;;;;;;4.60;4.40;;;;;;;12.10;91.64;101419.97;4381683;32;20053;-76
2021/12/31 05:04:16;;;;;;;5.75;5.53;;;;;;;11.64;91.93;101343.19;4361880;32;20156;-78
2021/12/31 05:06:42;;;;;;;4.60;4.40;;;;;;;11.11;91.94;101270.31;4385362;32;20062;-76
2021/12/31 05:09:08;;;;;;;4.85;4.65;;;;;;;12.04;91.77;101424.69;4376469;32;20120;-75
2021/12/31 05:11:33;;;;;;;4.43;4.22;;;;;;;12.02;91.96;101430.00;4372607;32;20154;-77
2021/12/31 05:13:58;;;;;;;4.35;4.15;;;;;;;8.78;91.98;100889.66;4381919;32;20079;-76
2021/12/31 05:16:24;;;;;;;5.10;4.90;;;;;;;12.02;92.17;101421.28;4370048;32;21016;-76
2021/12/31 05:18:49;;;;;;;4.65;4.45;;;;;;;11.96;92.41;101417.16;4377175;32;20706;-77
2021/12/31 05:21:14;;;;;;;5.78;5.55;;;;;;;12.04;92.00;101440.47;4377725;32;20088;-76
2021/12/31 05:23:40;;;;;;;4.60;4.40;;;;;;;12.05;92.35;101431.66;4372068;32;20087;-76
2021/12/31 05:26:08;;;;;;;4.50;4.30;;;;;;;11.49;91.87;101326.38;4364950;32;20078;-75
2021/12/31 05:28:33;;;;;;;4.50;4.30;;;;;;;12.05;92.21;101421.16;4377323;32;20077;-76
2021/12/31 05:30:59;;;;;;;4.60;4.40;;;;;;;11.88;91.95;101393.78;4365605;32;20085;-75
2021/12/31 05:33:24;;;;;;;5.45;5.25;;;;;;;12.06;91.81;101417.56;4361332;32;20084;-76
2021/12/31 05:35:49;;;;;;;4.60;4.40;;;;;;;12.05;91.88;101424.63;4371982;32;20081;-76
2021/12/31 05:38:15;;;;;;;5.93;5.65;;;;;;;11.79;92.20;101373.19;4378708;32;20605;-76
2021/12/31 05:40:40;;;;;;;4.57;4.37;;;;;;;12.14;91.66;101415.44;4377253;32;20066;-77
2021/12/31 05:43:06;;;;;;;5.18;4.97;;;;;;;11.01;90.66;101248.84;4372855;32;20062;-75
2021/12/31 05:45:31;;;;;;;4.60;4.40;;;;;;;12.04;90.72;101399.22;4372123;32;20078;-75
2021/12/31 05:47:56;;;;;;;4.53;4.32;;;;;;;12.15;90.84;101422.41;4371409;32;20066;-76
2021/12/31 05:50:28;;;;;;;5.50;5.30;;;;;;;11.91;90.89;101383.16;4378885;32;20088;-77
2021/12/31 05:52:57;;;;;;;4.40;4.20;;;;;;;10.91;91.24;101260.69;4390521;32;20093;-76
2021/12/31 05:55:22;;;;;;;5.65;5.45;;;;;;;12.12;91.03;101423.37;4383292;32;20080;-76
2021/12/31 05:57:47;;;;;;;4.50;4.30;;;;;;;12.04;91.04;101395.75;4376789;32;20176;-76
2021/12/31 06:00:13;;;;;;;5.55;5.35;;;;;;;12.12;91.25;101412.03;4356050;32;20074;-75
2021/12/31 06:02:39;;;;;;;4.80;4.60;;;;;;;12.09;90.78;101413.03;4380718;32;20069;-75
2021/12/31 06:05:04;;;;;;;4.60;4.40;;;;;;;12.09;90.89;101414.81;4380660;32;20069;-76
2021/12/31 06:07:30;;;;;;;4.90;4.70;;;;;;;12.05;90.99;101460.59;4381223;32;20952;-75
2021/12/31 06:09:55;;;;;;;4.70;4.50;;;;;;;12.03;90.82;101402.78;4362791;32;20090;-75
2021/12/31 06:12:23;;;;;;;6.07;5.78;;;;;;;11.99;91.15;101417.03;4375257;32;20358;-76
2021/12/31 06:14:49;;;;;;;4.40;4.20;;;;;;;12.00;91.15;101418.72;4375036;32;20074;-77
2021/12/31 06:17:16;;;;;;;5.60;5.40;;;;;;;11.88;90.93;101399.06;4374329;32;20084;-76
2021/12/31 06:19:42;;;;;;;4.40;4.20;;;;;;;11.88;91.21;101398.22;4361836;32;20073;-76
2021/12/31 06:22:07;;;;;;;4.90;4.70;;;;;;;12.02;91.21;101411.59;4373111;32;20112;-76
2021/12/31 06:24:33;;;;;;;4.70;4.50;;;;;;;12.01;91.22;101409.91;4372734;32;20057;-75
2021/12/31 06:26:58;;;;;;;4.60;4.40;;;;;;;9.24;90.58;101002.09;4373228;32;20088;-76
2021/12/31 06:29:23;;;;;;;4.50;4.30;;;;;;;11.92;91.81;101415.59;4369399;32;20069;-76
2021/12/31 06:31:49;;;;;;;4.60;4.40;;;;;;;11.96;91.49;101418.00;4380467;32;20260;-76
2021/12/31 06:34:14;;;;;;;6.32;6.03;;;;;;;11.96;91.50;101420.63;4365108;32;20061;-74
2021/12/31 06:36:39;;;;;;;4.70;4.50;;;;;;;11.94;91.84;101425.09;4384469;32;20115;-77
2021/12/31 06:39:05;;;;;;;4.50;4.30;;;;;;;11.90;91.57;101428.78;4376285;32;20820;-74
2021/12/31 06:41:30;;;;;;;4.53;4.32;;;;;;;11.81;91.55;101418.69;4370937;32;20131;-76
2021/12/31 06:43:55;;;;;;;4.50;4.30;;;;;;;11.68;91.74;101428.88;4373945;32;20073;-75
2021/12/31 06:46:21;;;;;;;5.93;5.65;;;;;;;11.59;92.69;101429.31;4373115;32;20433;-76
2021/12/31 06:48:47;;;;;;;4.40;4.20;;;;;;;11.48;93.20;101432.41;4378355;32;20085;-76
2021/12/31 06:51:12;;;;;;;4.80;4.60;;;;;;;11.37;93.93;101438.16;4364452;32;20069;-76
2021/12/31 06:53:38;;;;;;;4.65;4.45;;;;;;;7.70;93.43;100900.00;4392248;32;20076;-74
2021/12/31 06:56:04;;;;;;;4.70;4.50;;;;;;;11.18;94.60;101427.59;4376387;32;20199;-76
2021/12/31 06:58:29;;;;;;;4.50;4.30;;;;;;;11.13;95.61;101413.78;4376197;32;20086;-75
2021/12/31 07:00:55;;;;;;;5.07;4.78;;;;;;;11.09;95.55;101414.84;4382889;32;20078;-76
2021/12/31 07:03:20;;;;;;;5.65;5.45;;;;;;;10.91;95.89;101405.97;4373219;32;20716;-74
2021/12/31 07:05:45;;;;;;;4.35;4.15;;;;;;;10.98;96.43;101417.06;4387442;32;20068;-77
2021/12/31 07:08:11;;;;;;;5.40;5.20;;;;;;;8.16;96.15;100987.13;4365549;32;20117;-74
2021/12/31 07:10:36;;;;;;;4.60;4.40;;;;;;;10.90;96.55;101419.16;4383359;32;20065;-77
2021/12/31 07:13:13;;;;;;;4.40;4.20;;;;;;;10.69;96.73;101394.66;4383739;32;20098;-76
2021/12/31 07:15:44;;;;;;;4.60;4.40;;;;;;;10.78;97.39;101420.50;4383249;32;20074;-77
2021/12/31 07:18:09;;;;;;;5.03;4.82;;;;;;;10.73;98.32;101422.50;4377725;32;20851;-75
2021/12/31 07:20:34;;;;;;;4.60;4.40;;;;;;;9.46;98.17;101216.87;4365141;32;20088;-76
2021/12/31 07:23:07;;;;;;;5.22;4.93;;;;;;;10.23;98.29;101368.50;4375015;32;20080;-75
2021/12/31 07:25:32;;;;;;;4.40;4.20;;;;;;;10.64;98.55;101438.59;4363564;32;20533;-75
2021/12/31 07:27:57;;;;;;;4.90;4.60;;;;;;;10.38;98.90;101401.16;4396095;32;20084;-74
2021/12/31 07:30:23;;;;;;;6.05;5.75;;;;;;;10.65;98.96;101442.97;4359004;32;20066;-74
2021/12/31 07:32:48;;;;;;;4.40;4.20;;;;;;;10.47;99.00;101399.94;4394237;32;21060;-76
2021/12/31 07:35:13;;;;;;;5.55;5.35;;;;;;;10.74;98.79;101434.69;4370766;32;20093;-74
2021/12/31 07:37:39;;;;;;;4.37;4.18;;;;;;;10.76;98.67;101433.72;4379313;32;20070;-77
2021/12/31 07:40:10;;;;;;;4.55;4.35;;;;;;;10.77;98.10;101435.44;4371955;32;20082;-74
2021/12/31 07:42:36;;;;;;;4.50;4.30;;;;;;;10.81;98.11;101430.06;4384220;32;20086;-74
2021/12/31 07:45:02;;;;;;;4.30;4.10;;;;;;;10.72;97.53;101416.41;4373581;32;20176;-76
2021/12/31 07:47:27;;;;;;;5.00;4.70;;;;;;;10.73;97.37;101412.84;4355145;32;20090;-75
2021/12/31 07:49:52;;;;;;;4.32;4.12;;;;;;;10.85;97.29;101439.53;4375634;32;20072;-76
2021/12/31 07:52:18;;;;;;;5.80;5.55;;;;;;;10.85;97.05;101439.53;4358507;32;20061;-76
2021/12/31 07:54:43;;;;;;;4.60;4.40;;;;;;;10.81;96.81;101433.53;4374307;32;20070;-74
2021/12/31 07:57:09;;;;;;;4.75;4.55;;;;;;;10.81;97.08;101435.31;4351709;32;20078;-73
2021/12/31 07:59:34;;;;;;;4.50;4.30;;;;;;;10.73;97.09;101422.50;4348521;32;21029;-74
2021/12/31 08:01:59;;;;;;;4.70;4.50;;;;;;;10.78;97.60;101437.16;4365134;32;20193;-75
2021/12/31 08:04:25;;;;;;;4.68;4.47;;;;;;;10.80;96.87;101438.84;4350586;32;21122;-76
2021/12/31 08:06:50;;;;;;;4.60;4.40;;;;;;;10.55;97.26;101395.22;4387835;32;20073;-75
2021/12/31 08:09:15;;;;;;;5.57;5.37;;;;;;;10.72;97.11;101419.03;4348149;32;20092;-77
2021/12/31 08:11:41;;;;;;;4.65;4.45;;;;;;;10.90;96.85;101443.63;4365593;32;20077;-76
2021/12/31 08:14:07;;;;;;;4.60;4.40;;;;;;;10.90;96.75;101446.25;4369573;32;20570;-74
2021/12/31 08:16:32;;;;;;;4.30;4.10;;;;;;;10.85;96.65;101429.00;4366956;32;20088;-77
2021/12/31 08:18:57;;;;;;;4.65;4.45;;;;;;;10.92;96.60;101449.69;4385314;32;20069;-76
2021/12/31 08:21:23;;;;;;;5.87;5.57;;;;;;;10.87;96.45;101442.94;4364478;32;20152;-77
2021/12/31 08:23:48;;;;;;;4.40;4.20;;;;;;;10.92;96.74;101449.69;4354060;32;20101;-75
2021/12/31 08:26:13;;;;;;;5.03;4.82;;;;;;;10.94;96.21;101445.25;4366469;32;20066;-77
2021/12/31 08:28:39;;;;;;;4.70;4.50;;;;;;;10.95;96.14;101446.09;4360980;32;20157;-76
2021/12/31 08:31:07;;;;;;;4.60;4.40;;;;;;;10.94;96.06;101439.12;4374218;32;20097;-72
2021/12/31 08:33:32;;;;;;;4.70;4.30;;;;;;;11.01;96.23;101455.50;4368558;32;20148;-76
2021/12/31 08:35:58;;;;;;;4.40;4.20;;;;;;;11.04;95.85;101450.09;4369632;32;20082;-76
2021/12/31 08:38:23;;;;;;;5.60;5.40;;;;;;;11.05;96.07;101443.94;4367746;32;20093;-76
2021/12/31 08:40:49;;;;;;;4.35;4.15;;;;;;;11.07;95.43;101442.09;4362636;32;20768;-76
2021/12/31 08:43:14;;;;;;;5.45;5.25;;;;;;;11.07;95.57;101442.94;4352881;32;20089;-76
2021/12/31 08:45:39;;;;;;;4.50;4.30;;;;;;;11.08;95.57;101439.38;4361579;32;20082;-76
2021/12/31 08:48:05;;;;;;;4.20;4.00;;;;;;;11.08;95.30;101436.75;4363963;32;21041;-77
2021/12/31 08:50:30;;;;;;;4.40;4.20;;;;;;;11.07;95.19;101448.19;4364407;32;20065;-75
2021/12/31 08:52:56;;;;;;;4.40;4.20;;;;;;;11.07;95.39;101447.34;4355551;32;20957;-75
2021/12/31 08:55:21;;;;;;;5.47;5.28;;;;;;;11.11;95.35;101451.56;4368784;32;20074;-75
2021/12/31 08:57:47;;;;;;;4.37;4.18;;;;;;;11.11;95.37;101462.91;4365319;32;20728;-74
2021/12/31 09:00:12;;;;;;;6.12;5.82;;;;;;;11.12;95.10;101448.00;4349845;32;20087;-74
2021/12/31 09:02:39;;;;;;;4.32;4.12;;;;;;;11.10;94.80;101441.97;4372344;32;20177;-75
2021/12/31 09:05:06;;;;;;;4.82;4.50;;;;;;;10.58;95.01;101343.47;4364740;32;20069;-75
2021/12/31 09:07:31;;;;;;;4.40;4.20;;;;;;;10.93;94.88;101393.63;4370924;32;20106;-75
2021/12/31 09:09:56;;;;;;;4.50;4.30;;;;;;;10.78;94.29;101368.00;4353196;32;20843;-77
2021/12/31 09:12:22;;;;;;;6.15;5.85;;;;;;;11.29;94.03;101448.13;4350351;32;20070;-75
2021/12/31 09:14:47;;;;;;;4.50;4.30;;;;;;;11.26;94.11;101442.16;4367173;32;20070;-75
2021/12/31 09:17:12;;;;;;;5.35;5.15;;;;;;;10.46;93.79;101304.59;4351860;32;20150;-75
2021/12/31 09:19:38;;;;;;;4.68;4.40;;;;;;;11.37;93.63;101453.06;4362191;32;20084;-76
2021/12/31 09:22:04;;;;;;;4.55;4.35;;;;;;;11.41;93.43;101461.69;4366764;32;20081;-74
2021/12/31 09:24:30;;;;;;;4.65;4.45;;;;;;;11.47;93.48;101471.94;4371333;32;20073;-75
2021/12/31 09:26:55;;;;;;;4.45;4.25;;;;;;;10.70;92.69;101346.47;4358787;32;20089;-76
2021/12/31 09:29:23;;;;;;;6.10;5.80;;;;;;;11.60;92.48;101467.81;4353703;32;20089;-76
2021/12/31 09:31:49;;;;;;;4.50;4.30;;;;;;;11.66;91.96;101456.19;4374601;32;21095;-75
2021/12/31 09:34:14;;;;;;;6.03;5.72;;;;;;;11.58;91.70;101428.44;4357143;32;20085;-74
2021/12/31 09:36:40;;;;;;;4.80;4.60;;;;;;;11.78;91.60;101450.37;4378565;32;20085;-76
2021/12/31 09:39:05;;;;;;;4.80;4.60;;;;;;;11.84;91.06;101449.25;4371186;32;20340;-76
2021/12/31 09:41:30;;;;;;;4.60;4.40;;;;;;;11.84;91.00;101441.34;4372847;32;20073;-76
2021/12/31 09:43:56;;;;;;;4.50;4.30;;;;;;;10.95;90.08;101301.66;4361027;32;20077;-75
2021/12/31 09:46:22;;;;;;;6.25;5.95;;;;;;;11.91;90.26;101448.94;4349550;32;20773;-76
2021/12/31 09:48:47;;;;;;;4.90;4.70;;;;;;;11.92;90.25;101437.47;4363462;32;20160;-76
2021/12/31 09:51:13;;;;;;;5.93;5.62;;;;;;;11.90;89.77;101449.84;4356293;32;20082;-76
2021/12/31 09:53:38;;;;;;;4.47;4.28;;;;;;;11.92;89.70;101448.00;4378543;32;20088;-75
2021/12/31 09:56:04;;;;;;;4.60;4.40;;;;;;;11.95;89.56;101457.53;4366908;32;20065;-76
2021/12/31 09:58:29;;;;;;;4.80;4.60;;;;;;;11.94;89.44;101454.03;4372023;32;21242;-78
2021/12/31 10:00:57;;;;;;;4.50;4.30;;;;;;;11.54;89.59;101363.78;4355547;32;20084;-76
2021/12/31 10:03:26;;;;;;;6.15;5.85;;;;;;;11.96;89.60;101432.94;4375089;32;20139;-76
2021/12/31 10:05:53;;;;;;;4.60;4.40;;;;;;;11.83;89.41;101400.22;4376197;32;20485;-76
2021/12/31 10:08:20;;;;;;;4.60;4.40;;;;;;;11.92;89.42;101415.59;4369208;32;20130;-76
2021/12/31 10:11:05;;;;;;;4.62;4.43;;;;;;;12.22;89.20;101444.88;4374624;32;20163;-77
2021/12/31 10:13:30;;;;;;;4.50;4.30;;;;;;;12.23;88.87;101433.44;4374710;32;20093;-76
2021/12/31 10:15:56;;;;;;;4.47;4.28;;;;;;;12.25;87.92;101439.47;4354814;32;20099;-76
2021/12/31 10:18:28;;;;;;;6.03;5.72;;;;;;;12.42;87.50;101446.56;4351343;32;20494;-76
2021/12/31 10:20:54;;;;;;;4.50;4.30;;;;;;;11.96;86.95;101378.53;4358380;32;20065;-76
2021/12/31 10:23:19;;;;;;;5.95;5.65;;;;;;;12.54;86.79;101460.91;4362041;32;20175;-77
2021/12/31 10:25:46;;;;;;;4.57;4.37;;;;;;;12.43;86.34;101439.50;4351260;32;20088;-76
2021/12/31 10:28:12;;;;;;;5.90;5.62;;;;;;;11.65;86.41;101360.69;4364875;32;21668;-76
2021/12/31 10:30:38;;;;;;;4.57;4.37;;;;;;;12.41;86.58;101434.34;4358131;32;20086;-77
2021/12/31 10:33:03;;;;;;;4.50;4.30;;;;;;;12.08;86.18;101369.22;4370454;32;20061;-79
2021/12/31 10:35:39;;;;;;;5.00;4.80;;;;;;;12.72;85.87;101470.53;4353745;32;20062;-77
2021/12/31 10:38:06;;;;;;;4.70;4.50;;;;;;;12.71;85.86;101468.84;4367278;32;20125;-77
2021/12/31 10:40:36;;;;;;;4.50;4.30;;;;;;;12.70;85.13;101439.94;4357319;32;20673;-79
2021/12/31 10:43:32;;;;;;;4.65;4.45;;;;;;;12.90;85.34;101452.12;4378771;32;21165;-77
2021/12/31 10:46:05;;;;;;;4.50;4.30;;;;;;;13.09;84.74;101476.66;4370705;32;20087;-77
2021/12/31 10:48:47;;;;;;;5.00;4.80;;;;;;;12.80;84.33;101398.22;4380405;32;20078;-76
2021/12/31 10:51:14;;;;;;;6.12;5.82;;;;;;;13.24;84.44;101450.44;4363643;32;20868;-76
2021/12/31 10:53:43;;;;;;;4.70;4.50;;;;;;;13.21;83.45;101454.09;4356668;32;20164;-76
2021/12/31 10:56:10;;;;;;;4.93;4.72;;;;;;;13.07;83.09;101412.63;4357443;32;20185;-78
2021/12/31 10:58:36;;;;;;;4.55;4.35;;;;;;;12.69;82.81;101362.72;4370810;32;20793;-77
2021/12/31 11:01:05;;;;;;;4.62;4.43;;;;;;;13.07;83.37;101411.75;4365541;32;21177;-78
2021/12/31 11:03:30;;;;;;;4.72;4.53;;;;;;;12.25;83.51;101280.69;4365767;32;20169;-77
2021/12/31 11:05:56;;;;;;;4.80;4.60;;;;;;;13.12;83.86;101417.66;4351171;32;20096;-78
2021/12/31 11:08:22;;;;;;;5.32;5.12;;;;;;;13.05;83.79;101409.22;4353372;32;20069;-77
2021/12/31 11:10:47;;;;;;;4.93;4.62;;;;;;;13.00;84.19;101413.00;4380948;32;20662;-77
2021/12/31 11:13:18;;;;;;;5.60;5.40;;;;;;;12.90;84.43;101413.47;4367752;32;20080;-78
2021/12/31 11:15:44;;;;;;;4.70;4.50;;;;;;;12.83;84.21;101385.75;4362818;32;20073;-76
2021/12/31 11:18:12;;;;;;;5.45;5.25;;;;;;;12.80;85.03;101390.31;4351028;32;20184;-78
2021/12/31 11:20:37;;;;;;;4.70;4.50;;;;;;;12.33;85.12;101337.31;4382755;32;20161;-77
2021/12/31 11:23:02;;;;;;;4.60;4.40;;;;;;;12.73;85.30;101418.75;4366259;32;20175;-76